createdAt,value
2023-02-11T00:00:43.603Z,49.76
2023-02-11T00:03:11.572Z,49.80
2023-02-11T00:05:39.473Z,49.08
2023-02-11T00:08:07.350Z,49.16
2023-02-11T00:10:35.202Z,47.94
2023-02-11T00:13:03.148Z,48.08
2023-02-11T00:15:31.030Z,47.64
2023-02-11T00:18:00.256Z,47.71
2023-02-11T00:20:28.184Z,47.12
2023-02-11T00:22:56.060Z,46.50
2023-02-11T00:25:23.973Z,45.84
2023-02-11T00:27:51.840Z,45.94
2023-02-11T00:30:19.823Z,47.10
2023-02-11T00:32:47.728Z,47.36
2023-02-11T00:35:17.273Z,46.47
2023-02-11T00:37:45.144Z,47.53
2023-02-11T00:40:16.004Z,47.24
2023-02-11T00:42:43.911Z,46.02
2023-02-11T00:45:12.067Z,46.72
2023-02-11T00:47:40.085Z,48.12
2023-02-11T00:50:08.501Z,49.07
2023-02-11T00:52:37.727Z,49.57
2023-02-11T00:55:06.118Z,49.82
2023-02-11T00:57:34.019Z,48.85
2023-02-11T01:00:01.894Z,49.33
2023-02-11T01:02:29.771Z,48.97
2023-02-11T01:04:59.618Z,47.69
2023-02-11T01:07:27.738Z,47.92
2023-02-11T01:09:57.377Z,48.26
2023-02-11T01:12:25.495Z,48.46
2023-02-11T01:14:53.404Z,48.36
2023-02-11T01:17:21.245Z,48.13
2023-02-11T01:19:49.397Z,48.91
2023-02-11T01:22:17.230Z,48.37
2023-02-11T01:24:45.093Z,47.77
2023-02-11T01:27:14.323Z,47.75
2023-02-11T01:29:42.401Z,48.37
2023-02-11T01:32:10.275Z,46.41
2023-02-11T01:34:38.375Z,46.30
2023-02-11T01:37:06.361Z,47.27
2023-02-11T01:39:34.947Z,47.50
2023-02-11T01:42:03.003Z,45.49
2023-02-11T01:44:34.625Z,45.69
2023-02-11T01:47:04.785Z,45.33
2023-02-11T01:49:36.388Z,44.75
2023-02-11T01:52:11.582Z,42.96
2023-02-11T01:55:03.057Z,43.62
2023-02-11T01:57:34.890Z,44.11
2023-02-11T02:00:11.294Z,42.87
2023-02-11T02:02:50.265Z,42.72
2023-02-11T02:05:28.236Z,42.35
2023-02-11T02:08:11.932Z,42.07
2023-02-11T02:10:45.655Z,43.22
2023-02-11T02:13:14.988Z,42.45
2023-02-11T02:15:51.736Z,41.77
2023-02-11T02:18:36.825Z,42.44
2023-02-11T02:21:50.475Z,41.77
2023-02-11T02:24:38.349Z,41.08
2023-02-11T02:27:42.648Z,42.14
2023-02-11T02:30:35.978Z,41.28
2023-02-11T02:33:34.502Z,41.21
2023-02-11T02:36:14.324Z,41.19
2023-02-11T02:38:49.787Z,39.80
2023-02-11T02:41:22.169Z,40.51
2023-02-11T02:43:52.141Z,40.34
2023-02-11T02:46:23.298Z,40.67
2023-02-11T02:48:54.341Z,41.29
2023-02-11T02:51:49.658Z,40.49
2023-02-11T02:54:58.782Z,40.90
2023-02-11T02:57:36.802Z,41.66
2023-02-11T03:00:25.027Z,41.33
2023-02-11T03:03:10.221Z,40.36
2023-02-11T03:05:51.047Z,40.84
2023-02-11T03:08:30.549Z,41.39
2023-02-11T03:11:01.700Z,41.11
2023-02-11T03:13:35.054Z,40.62
2023-02-11T03:16:09.912Z,40.91
2023-02-11T03:18:42.399Z,41.23
2023-02-11T03:21:14.038Z,40.46
2023-02-11T03:23:48.961Z,41.43
2023-02-11T03:26:25.743Z,39.85
2023-02-11T03:29:00.231Z,39.66
2023-02-11T03:31:35.224Z,40.54
2023-02-11T03:34:10.218Z,39.69
2023-02-11T03:36:47.241Z,39.06
2023-02-11T03:39:20.668Z,40.36
2023-02-11T03:41:51.679Z,41.01
2023-02-11T03:44:23.487Z,41.08
2023-02-11T03:46:53.853Z,40.31
2023-02-11T03:49:27.931Z,39.88
2023-02-11T03:51:59.889Z,40.73
2023-02-11T03:54:31.936Z,41.28
2023-02-11T03:57:03.324Z,41.52
2023-02-11T03:59:31.391Z,41.42
2023-02-11T04:01:59.582Z,40.99
2023-02-11T04:04:27.576Z,41.00
2023-02-11T04:06:57.624Z,40.74
2023-02-11T04:09:25.511Z,41.24
2023-02-11T04:11:53.401Z,40.75
2023-02-11T04:14:21.257Z,41.16
2023-02-11T04:16:49.128Z,41.75
2023-02-11T04:19:16.979Z,42.28
2023-02-11T04:21:44.892Z,42.25
2023-02-11T04:24:14.142Z,42.22
2023-02-11T04:26:42.021Z,41.84
2023-02-11T04:29:09.892Z,41.73
2023-02-11T04:31:37.765Z,41.14
2023-02-11T04:34:05.656Z,42.30
2023-02-11T04:36:33.572Z,44.50
2023-02-11T04:39:01.721Z,48.00
2023-02-11T04:41:30.963Z,45.70
2023-02-11T04:43:58.953Z,44.18
2023-02-11T04:46:26.942Z,44.17
2023-02-11T04:48:54.870Z,44.23
2023-02-11T04:51:22.738Z,44.36
2023-02-11T04:53:50.633Z,44.36
2023-02-11T04:56:18.475Z,43.60
2023-02-11T04:58:47.677Z,43.34
2023-02-11T05:01:17.454Z,43.71
2023-02-11T05:03:45.893Z,42.88
2023-02-11T05:06:14.511Z,42.43
2023-02-11T05:08:42.404Z,44.25
2023-02-11T05:11:17.829Z,44.76
2023-02-11T05:13:48.282Z,44.65
2023-02-11T05:16:17.212Z,44.99
2023-02-11T05:18:46.125Z,44.56
2023-02-11T05:21:16.832Z,43.98
2023-02-11T05:23:46.308Z,44.10
2023-02-11T05:26:15.128Z,42.98
2023-02-11T05:28:43.754Z,43.12
2023-02-11T05:31:14.662Z,42.79
2023-02-11T05:33:42.965Z,40.87
2023-02-11T05:36:13.276Z,41.54
2023-02-11T05:38:43.338Z,38.85
2023-02-11T05:41:14.189Z,38.85
2023-02-11T05:43:42.046Z,38.71
2023-02-11T05:46:10.053Z,38.74
2023-02-11T05:48:39.381Z,38.09
2023-02-11T05:51:07.258Z,38.64
2023-02-11T05:53:35.437Z,40.17
2023-02-11T05:56:03.417Z,39.04
2023-02-11T05:58:31.263Z,38.35
2023-02-11T06:00:59.262Z,40.44
2023-02-11T06:03:27.110Z,38.07
2023-02-11T06:05:56.370Z,37.48
2023-02-11T06:08:24.313Z,37.73
2023-02-11T06:10:52.173Z,36.83
2023-02-11T06:13:20.036Z,37.01
2023-02-11T06:15:57.171Z,36.92
2023-02-11T06:18:25.249Z,36.96
2023-02-11T06:20:53.516Z,38.54
2023-02-11T06:23:23.645Z,38.78
2023-02-11T06:25:52.053Z,41.39
2023-02-11T06:28:20.301Z,41.58
2023-02-11T06:30:48.531Z,40.16
2023-02-11T06:33:17.130Z,40.67
2023-02-11T06:35:44.944Z,39.73
2023-02-11T06:38:12.785Z,38.66
2023-02-11T06:40:42.106Z,40.97
2023-02-11T06:43:09.982Z,45.94
2023-02-11T06:45:37.859Z,40.03
2023-02-11T06:48:05.909Z,38.62
2023-02-11T06:50:33.816Z,39.58
2023-02-11T06:53:02.036Z,38.05
2023-02-11T06:55:29.908Z,38.54
2023-02-11T06:57:59.133Z,39.69
2023-02-11T07:00:29.073Z,38.88
2023-02-11T07:02:57.149Z,39.40
2023-02-11T07:05:25.352Z,45.46
2023-02-11T07:07:53.203Z,42.81
2023-02-11T07:10:21.046Z,44.65
2023-02-11T07:12:48.876Z,42.79
2023-02-11T07:15:18.234Z,41.68
2023-02-11T07:17:46.125Z,41.70
2023-02-11T07:20:15.040Z,42.81
2023-02-11T07:22:42.953Z,43.93
2023-02-11T07:25:10.905Z,41.37
2023-02-11T07:27:38.932Z,42.59
2023-02-11T07:30:07.601Z,43.20
2023-02-11T07:32:36.898Z,40.28
2023-02-11T07:35:05.483Z,40.57
2023-02-11T07:37:34.928Z,46.08
2023-02-11T07:40:03.055Z,56.93
2023-02-11T07:42:30.957Z,60.06
2023-02-11T07:44:58.831Z,60.48
2023-02-11T07:47:26.807Z,55.56
2023-02-11T07:49:56.774Z,49.28
2023-02-11T07:52:24.714Z,47.46
2023-02-11T07:54:52.665Z,46.35
2023-02-11T07:57:20.519Z,49.75
2023-02-11T07:59:48.437Z,60.25
2023-02-11T08:02:16.285Z,59.98
2023-02-11T08:04:44.254Z,46.30
2023-02-11T08:07:16.206Z,43.55
2023-02-11T08:09:44.325Z,42.23
2023-02-11T08:12:12.608Z,42.18
2023-02-11T08:14:40.495Z,44.05
2023-02-11T08:17:08.397Z,44.28
2023-02-11T08:19:36.304Z,42.21
2023-02-11T08:22:04.299Z,41.97
2023-02-11T08:24:33.500Z,42.83
2023-02-11T08:27:01.432Z,45.84
2023-02-11T08:29:30.511Z,44.15
2023-02-11T08:31:58.427Z,44.13
2023-02-11T08:34:26.339Z,44.16
2023-02-11T08:36:54.265Z,49.41
2023-02-11T08:39:24.087Z,48.41
2023-02-11T08:41:56.652Z,40.49
2023-02-11T08:44:25.454Z,53.68
2023-02-11T08:46:53.918Z,49.24
2023-02-11T08:49:22.248Z,45.12
2023-02-11T08:51:50.777Z,41.62
2023-02-11T08:54:19.046Z,40.11
2023-02-11T08:56:47.120Z,40.39
2023-02-11T08:59:17.782Z,42.15
2023-02-11T09:01:47.248Z,40.05
2023-02-11T09:04:15.609Z,39.32
2023-02-11T09:06:43.505Z,37.32
2023-02-11T09:09:15.097Z,36.19
2023-02-11T09:11:44.990Z,38.34
2023-02-11T09:14:20.361Z,35.85
2023-02-11T09:16:49.563Z,34.92
2023-02-11T09:19:18.785Z,35.32
2023-02-11T09:21:46.722Z,34.45
2023-02-11T09:24:14.571Z,33.79
2023-02-11T09:26:43.961Z,35.24
2023-02-11T09:29:11.942Z,31.36
2023-02-11T09:31:41.377Z,30.15
2023-02-11T09:34:09.582Z,28.45
2023-02-11T09:36:40.080Z,25.77
2023-02-11T09:39:12.753Z,24.33
2023-02-11T09:42:04.240Z,23.15
2023-02-11T09:44:35.006Z,23.39
2023-02-11T09:47:08.158Z,25.30
2023-02-11T09:49:44.405Z,28.72
2023-02-11T09:52:28.906Z,26.86
2023-02-11T09:54:59.525Z,27.22
2023-02-11T09:57:33.521Z,27.43
2023-02-11T10:00:02.851Z,26.22
2023-02-11T10:02:46.526Z,26.98
2023-02-11T10:05:40.474Z,26.10
2023-02-11T10:08:17.400Z,27.89
2023-02-11T10:10:54.051Z,27.49
2023-02-11T10:13:48.716Z,25.52
2023-02-11T10:16:35.558Z,24.81
2023-02-11T10:19:22.077Z,24.27
2023-02-11T10:22:01.010Z,24.30
2023-02-11T10:24:29.773Z,24.07
2023-02-11T10:26:57.668Z,23.43
2023-02-11T10:29:37.527Z,22.92
2023-02-11T10:32:25.220Z,20.43
2023-02-11T10:35:01.686Z,19.89
2023-02-11T10:37:29.611Z,20.25
2023-02-11T10:39:57.799Z,20.78
2023-02-11T10:42:26.363Z,21.96
2023-02-11T10:45:01.324Z,20.63
2023-02-11T10:47:34.147Z,21.00
2023-02-11T10:50:22.329Z,21.88
2023-02-11T10:52:50.297Z,20.78
2023-02-11T10:55:21.730Z,32.47
2023-02-11T10:57:57.666Z,24.08
2023-02-11T11:00:37.929Z,17.20
2023-02-11T11:03:15.939Z,18.21
2023-02-11T11:05:50.944Z,17.12
2023-02-11T11:08:20.219Z,16.69
2023-02-11T11:11:03.753Z,16.92
2023-02-11T11:13:34.616Z,17.01
2023-02-11T11:16:21.165Z,17.10
2023-02-11T11:18:51.134Z,16.92
2023-02-11T11:21:24.295Z,18.00
2023-02-11T11:23:56.652Z,17.00
2023-02-11T11:26:27.780Z,16.79
2023-02-11T11:29:00.294Z,16.71
2023-02-11T11:31:33.197Z,17.14
2023-02-11T11:34:07.933Z,16.92
2023-02-11T11:36:41.340Z,17.34
2023-02-11T11:39:22.451Z,16.52
2023-02-11T11:42:01.039Z,16.33
2023-02-11T11:44:33.218Z,15.76
2023-02-11T11:47:26.682Z,15.99
2023-02-11T11:50:27.425Z,17.26
2023-02-11T11:53:04.191Z,17.38
2023-02-11T11:55:39.707Z,17.60
2023-02-11T11:58:17.455Z,18.67
2023-02-11T12:00:57.755Z,18.83
2023-02-11T12:04:07.042Z,17.85
2023-02-11T12:06:51.057Z,18.78
2023-02-11T12:09:33.749Z,19.40
2023-02-11T12:12:15.971Z,19.63
2023-02-11T12:14:57.128Z,19.31
2023-02-11T12:17:42.464Z,19.93
2023-02-11T12:20:24.655Z,20.19
2023-02-11T12:23:13.104Z,20.39
2023-02-11T12:25:53.632Z,20.16
2023-02-11T12:28:37.034Z,20.07
2023-02-11T12:31:23.551Z,21.46
2023-02-11T12:34:20.184Z,22.19
2023-02-11T12:37:04.238Z,23.54
2023-02-11T12:39:39.507Z,20.90
2023-02-11T12:42:51.839Z,21.05
2023-02-11T12:45:36.348Z,20.95
2023-02-11T12:48:22.657Z,20.69
2023-02-11T12:51:00.194Z,21.31
2023-02-11T12:53:59.970Z,21.39
2023-02-11T12:56:34.777Z,21.12
2023-02-11T12:59:21.328Z,21.16
2023-02-11T13:01:53.288Z,21.60
2023-02-11T13:04:29.800Z,21.69
2023-02-11T13:07:03.436Z,21.22
2023-02-11T13:09:36.792Z,20.50
2023-02-11T13:12:28.914Z,20.82
2023-02-11T13:15:04.465Z,21.38
2023-02-11T13:17:42.340Z,21.32
2023-02-11T13:20:26.463Z,21.19
2023-02-11T13:23:07.303Z,20.90
2023-02-11T13:25:43.983Z,20.81
2023-02-11T13:28:29.404Z,20.64
2023-02-11T13:31:03.457Z,20.13
2023-02-11T13:33:34.592Z,20.28
2023-02-11T13:36:15.773Z,21.07
2023-02-11T13:38:58.183Z,20.37
2023-02-11T13:41:31.487Z,20.47
2023-02-11T13:44:04.131Z,20.68
2023-02-11T13:46:54.085Z,21.51
2023-02-11T13:49:25.602Z,21.24
2023-02-11T13:51:55.659Z,21.50
2023-02-11T13:54:33.289Z,21.19
2023-02-11T13:57:24.479Z,21.04
2023-02-11T13:59:55.191Z,21.73
2023-02-11T14:02:45.944Z,21.00
2023-02-11T14:05:47.530Z,21.36
2023-02-11T14:08:38.456Z,21.66
2023-02-11T14:11:31.800Z,22.37
2023-02-11T14:14:15.955Z,22.07
2023-02-11T14:17:23.456Z,22.22
2023-02-11T14:19:53.188Z,22.77
2023-02-11T14:22:26.678Z,22.46
2023-02-11T14:24:58.509Z,22.80
2023-02-11T14:27:52.217Z,28.77
2023-02-11T14:31:00.152Z,28.32
2023-02-11T14:33:48.775Z,23.85
2023-02-11T14:36:59.255Z,22.60
2023-02-11T14:39:42.838Z,21.75
2023-02-11T14:42:20.826Z,22.75
2023-02-11T14:44:53.375Z,22.99
2023-02-11T14:47:26.507Z,22.74
2023-02-11T14:49:55.703Z,23.16
2023-02-11T14:52:31.063Z,22.54
2023-02-11T14:55:14.774Z,22.85
2023-02-11T14:57:44.521Z,22.90
2023-02-11T15:00:18.856Z,22.41
2023-02-11T15:02:46.964Z,21.46
2023-02-11T15:05:17.681Z,20.93
2023-02-11T15:07:50.620Z,20.64
2023-02-11T15:10:30.668Z,20.93
2023-02-11T15:13:01.986Z,20.88
2023-02-11T15:15:31.596Z,21.29
2023-02-11T15:18:03.810Z,22.43
2023-02-11T15:20:35.827Z,22.40
2023-02-11T15:23:09.937Z,22.26
2023-02-11T15:25:45.766Z,22.56
2023-02-11T15:28:24.244Z,23.13
2023-02-11T15:30:59.609Z,24.01
2023-02-11T15:33:30.044Z,23.50
2023-02-11T15:35:58.909Z,24.22
2023-02-11T15:38:29.853Z,23.83
2023-02-11T15:41:02.114Z,24.58
2023-02-11T15:43:43.789Z,22.96
2023-02-11T15:46:16.864Z,23.52
2023-02-11T15:48:48.430Z,24.78
2023-02-11T15:51:22.807Z,25.23
2023-02-11T15:53:56.832Z,25.11
2023-02-11T15:56:30.630Z,25.85
2023-02-11T15:59:01.517Z,26.11
2023-02-11T16:01:33.877Z,26.19
2023-02-11T16:04:03.562Z,27.00
2023-02-11T16:06:38.314Z,26.47
2023-02-11T16:09:25.533Z,26.06
2023-02-11T16:11:59.135Z,26.34
2023-02-11T16:14:33.664Z,26.33
2023-02-11T16:17:07.007Z,26.72
2023-02-11T16:19:36.660Z,26.87
2023-02-11T16:22:11.565Z,27.14
2023-02-11T16:24:41.080Z,27.80
2023-02-11T16:27:22.257Z,27.48
2023-02-11T16:29:52.071Z,28.13
2023-02-11T16:32:22.324Z,29.23
2023-02-11T16:34:51.623Z,29.09
2023-02-11T16:37:19.480Z,28.76
2023-02-11T16:39:48.744Z,31.37
2023-02-11T16:42:16.768Z,32.18
2023-02-11T16:44:44.672Z,31.96
2023-02-11T16:47:21.121Z,32.05
2023-02-11T16:49:49.266Z,32.14
2023-02-11T16:52:19.757Z,30.88
2023-02-11T16:54:49.193Z,31.78
2023-02-11T16:57:18.878Z,29.48
2023-02-11T16:59:47.080Z,30.29
2023-02-11T17:02:21.197Z,35.04
2023-02-11T17:04:50.978Z,35.64
2023-02-11T17:07:18.902Z,36.76
2023-02-11T17:09:48.174Z,33.94
2023-02-11T17:12:16.074Z,31.86
2023-02-11T17:14:44.004Z,30.83
2023-02-11T17:17:12.289Z,28.16
2023-02-11T17:19:41.214Z,30.20
2023-02-11T17:22:09.954Z,31.56
2023-02-11T17:24:38.013Z,30.37
2023-02-11T17:27:07.384Z,30.38
2023-02-11T17:29:35.299Z,31.33
2023-02-11T17:32:03.296Z,31.76
2023-02-11T17:34:32.366Z,32.04
2023-02-11T17:37:01.460Z,29.96
2023-02-11T17:39:29.356Z,29.67
2023-02-11T17:41:57.250Z,29.96
2023-02-11T17:44:26.442Z,29.27
2023-02-11T17:46:54.378Z,29.98
2023-02-11T17:49:22.294Z,29.10
2023-02-11T17:51:50.236Z,29.18
2023-02-11T17:54:20.182Z,30.02
2023-02-11T17:56:50.776Z,29.65
2023-02-11T17:59:18.964Z,30.48
2023-02-11T18:01:48.576Z,29.09
2023-02-11T18:04:19.467Z,30.28
2023-02-11T18:06:48.068Z,31.26
2023-02-11T18:09:16.007Z,31.04
2023-02-11T18:11:43.942Z,31.53
2023-02-11T18:14:12.477Z,30.86
2023-02-11T18:16:43.080Z,30.37
2023-02-11T18:19:13.416Z,31.34
2023-02-11T18:21:41.579Z,32.00
2023-02-11T18:24:09.585Z,33.37
2023-02-11T18:26:37.541Z,33.40
2023-02-11T18:29:06.952Z,39.02
2023-02-11T18:31:35.595Z,58.29
2023-02-11T18:34:03.663Z,50.90
2023-02-11T18:36:32.931Z,48.81
2023-02-11T18:39:00.808Z,47.96
2023-02-11T18:41:29.227Z,49.78
2023-02-11T18:44:02.697Z,53.42
2023-02-11T18:46:31.345Z,57.41
2023-02-11T18:48:59.464Z,57.18
2023-02-11T18:51:28.025Z,50.22
2023-02-11T18:53:57.244Z,43.54
2023-02-11T18:56:27.689Z,42.24
2023-02-11T18:58:56.566Z,46.42
2023-02-11T19:01:27.911Z,49.98
2023-02-11T19:03:58.316Z,49.35
2023-02-11T19:06:29.089Z,45.69
2023-02-11T19:09:01.408Z,46.19
2023-02-11T19:11:50.398Z,46.78
2023-02-11T19:14:22.128Z,48.35
2023-02-11T19:16:53.217Z,48.86
2023-02-11T19:19:23.157Z,49.08
2023-02-11T19:21:51.336Z,50.13
2023-02-11T19:24:21.173Z,49.50
2023-02-11T19:26:51.405Z,45.39
2023-02-11T19:29:20.067Z,45.01
2023-02-11T19:31:48.297Z,42.11
2023-02-11T19:34:19.895Z,38.88
2023-02-11T19:36:48.921Z,36.52
2023-02-11T19:39:16.938Z,36.26
2023-02-11T19:41:46.261Z,35.42
2023-02-11T19:44:16.156Z,35.96
2023-02-11T19:46:44.112Z,39.67
2023-02-11T19:49:15.811Z,40.63
2023-02-11T19:51:43.669Z,35.22
2023-02-11T19:54:11.695Z,34.89
2023-02-11T19:56:39.652Z,35.81
2023-02-11T19:59:09.054Z,35.84
2023-02-11T20:01:37.557Z,35.55
2023-02-11T20:04:05.880Z,35.32
2023-02-11T20:06:35.732Z,33.12
2023-02-11T20:09:07.146Z,34.31
2023-02-11T20:11:36.485Z,36.96
2023-02-11T20:14:06.717Z,33.02
2023-02-11T20:16:47.482Z,33.60
2023-02-11T20:19:18.487Z,36.06
2023-02-11T20:21:48.664Z,38.78
2023-02-11T20:24:17.388Z,36.41
2023-02-11T20:26:46.873Z,35.99
2023-02-11T20:29:15.304Z,34.75
2023-02-11T20:31:44.928Z,34.57
2023-02-11T20:34:12.995Z,33.17
2023-02-11T20:36:41.591Z,32.55
2023-02-11T20:39:17.108Z,31.31
2023-02-11T20:41:46.901Z,30.45
2023-02-11T20:44:15.729Z,30.42
2023-02-11T20:46:47.538Z,31.63
2023-02-11T20:49:18.918Z,31.57
2023-02-11T20:51:47.604Z,30.74
2023-02-11T20:54:18.446Z,31.51
2023-02-11T20:56:48.355Z,32.36
2023-02-11T20:59:17.590Z,32.57
2023-02-11T21:01:53.442Z,33.14
2023-02-11T21:04:23.823Z,33.26
2023-02-11T21:06:54.783Z,31.97
2023-02-11T21:09:26.316Z,32.40
2023-02-11T21:11:55.859Z,31.92
2023-02-11T21:14:26.247Z,32.66
2023-02-11T21:16:55.994Z,32.91
2023-02-11T21:19:23.878Z,32.44
2023-02-11T21:21:52.031Z,33.72
2023-02-11T21:24:19.925Z,32.60
2023-02-11T21:26:47.965Z,32.87
2023-02-11T21:29:16.136Z,33.04
2023-02-11T21:31:44.291Z,32.61
2023-02-11T21:34:14.270Z,34.43
2023-02-11T21:36:42.205Z,35.26
2023-02-11T21:39:10.119Z,34.82
2023-02-11T21:41:38.080Z,35.25
2023-02-11T21:44:06.123Z,35.13
2023-02-11T21:46:34.011Z,35.41
2023-02-11T21:49:01.984Z,36.53
2023-02-11T21:51:31.389Z,38.55
2023-02-11T21:54:01.939Z,38.23
2023-02-11T21:56:33.313Z,37.88
2023-02-11T21:59:01.655Z,39.58
2023-02-11T22:01:31.570Z,38.14
2023-02-11T22:03:59.913Z,42.21
2023-02-11T22:06:30.904Z,42.79
2023-02-11T22:09:03.295Z,44.45
2023-02-11T22:11:31.192Z,44.33
2023-02-11T22:13:59.502Z,46.55
2023-02-11T22:16:28.968Z,48.31
2023-02-11T22:18:58.562Z,47.81
2023-02-11T22:21:27.148Z,46.41
2023-02-11T22:23:56.412Z,45.90
2023-02-11T22:26:27.828Z,44.92
2023-02-11T22:28:57.024Z,44.00
2023-02-11T22:31:27.397Z,43.77
2023-02-11T22:33:55.783Z,44.26
2023-02-11T22:36:25.626Z,43.60
2023-02-11T22:38:54.834Z,44.48
2023-02-11T22:41:24.026Z,44.24
2023-02-11T22:43:53.362Z,44.55
2023-02-11T22:46:21.708Z,43.24
2023-02-11T22:48:50.320Z,42.70
2023-02-11T22:51:20.538Z,43.05
2023-02-11T22:53:52.663Z,43.54
2023-02-11T22:56:21.650Z,44.32
2023-02-11T22:58:50.218Z,46.20
2023-02-11T23:01:19.892Z,44.58
2023-02-11T23:03:47.845Z,43.67
2023-02-11T23:06:15.753Z,42.48
2023-02-11T23:08:44.707Z,40.77
2023-02-11T23:11:14.987Z,40.80
2023-02-11T23:13:43.959Z,41.61
2023-02-11T23:16:15.248Z,42.09
2023-02-11T23:18:46.717Z,41.27
2023-02-11T23:21:18.226Z,42.03
2023-02-11T23:23:47.938Z,40.32
2023-02-11T23:26:18.842Z,41.82
2023-02-11T23:28:48.148Z,42.63
2023-02-11T23:31:19.125Z,41.79
2023-02-11T23:33:50.099Z,43.10
2023-02-11T23:36:19.871Z,43.65
2023-02-11T23:38:48.589Z,42.33
2023-02-11T23:41:20.723Z,41.21
2023-02-11T23:43:51.691Z,42.13
2023-02-11T23:46:22.462Z,42.96
2023-02-11T23:48:53.116Z,41.58
2023-02-11T23:51:21.832Z,41.33
2023-02-11T23:53:52.522Z,40.89
2023-02-11T23:56:23.147Z,40.63
2023-02-11T23:58:53.010Z,39.90
